• Join FlightAware (Why Join?)
  • Login
  • US Flag 
09:25PM EDT


 

Airport Tracker/Info


-or-


 

Live Flight TrackerFlight Track Log ✈ N960DL ✈ 10-Jun-2013 ✈ KDAB - KATL

Flight Track Log - Related Links

Times and Time Zones

All times are in EDT time to prevent confusion due to time zone crossing. See the N960DL flight status page for this flight to view local times or setup timezone preferences in your user account.

Time Position Orientation Groundspeed Altitude Reporting Facility
EDT Latitude Longitude Course Direction KTS MPH feet Rate Location/Type
02:52PM 29.1844 -81.0469 354° North 163 188 900  Level Jacksonville Center
02:54PM 29.2144 -80.9750 64° Northeast 247 284 2,600 2,100 Climbing Jacksonville Center
02:55PM 29.4264 -81.3098 319° Northwest  Level FlightAware Approximate
02:55PM 29.2767 -80.9453 23° Northeast 294 338 5,200  Level Jacksonville Center
02:55PM 29.3167 -80.9586 344° North 275 316 6,200 2,760 Climbing Jacksonville Center
02:56PM 29.5137 -81.3970 319° Northwest  Level FlightAware Approximate
02:56PM 29.3297 -81.0014 289° West 287 330 8,000  Level Jacksonville Center
02:56PM 29.3428 -81.0367 293° West 284 327 9,000 1,920 Climbing Jacksonville Center
02:57PM 29.6220 -81.4314 352° North  Level FlightAware Approximate
02:57PM 29.3794 -81.1219 296° West 294 338 11,000  Level Jacksonville Center
02:58PM 29.7369 -81.4463 354° North  Level FlightAware Approximate
02:58PM 29.4289 -81.2258 299° West 326 375 12,300  Level Jacksonville Center
02:59PM 29.4886 -81.3322 303° West 371 427 14,900 2,340 Climbing Jacksonville Center
03:00PM 29.5775 -81.4144 321° Northwest 399 459 17,000 1,800 Climbing Jacksonville Center
03:01PM 29.6803 -81.4797 331° Northwest 416 479 18,500 960 Climbing Jacksonville Center
03:02PM 29.7997 -81.5117 347° North 416 479 19,000 240 Climbing Jacksonville Center
03:03PM 29.9211 -81.5458 346° North 430 495 19,000 60 Level Jacksonville Center
03:04PM 30.0447 -81.5778 347° North 441 507 19,200 960 Climbing Jacksonville Center
03:05PM 30.1683 -81.6094 348° North 441 507 21,000 1,800 Climbing Jacksonville Center
03:06PM 30.3083 -81.6486 346° North 459 528 22,800 1,800 Climbing Jacksonville Center
03:07PM 30.4361 -81.6831 347° North 466 536 24,600 1,680 Climbing Jacksonville Center
03:08PM 30.5617 -81.7200 346° North 472 543 26,300 1,560 Climbing Jacksonville Center
03:09PM 30.6853 -81.7572 345° North 472 543 27,800 1,500 Climbing Jacksonville Center
03:10PM 30.8108 -81.7944 346° North 472 543 29,300 1,440 Climbing Jacksonville Center
03:11PM 30.9283 -81.8511 338° Northwest 461 531 30,700 1,260 Climbing Jacksonville Center
03:12PM 31.0375 -81.9203 332° Northwest 448 516 31,900 1,020 Climbing Jacksonville Center
03:13PM 31.1486 -81.9847 334° Northwest 443 510 32,800 540 Climbing Jacksonville Center
03:14PM 31.2575 -82.0467 334° Northwest 437 503 33,000 60 Climbing Jacksonville Center
03:15PM 31.3686 -82.1139 333° Northwest 437 503 33,000  Level Jacksonville Center
03:16PM 31.4797 -82.1811 333° Northwest 437 503 33,000  Level Jacksonville Center
03:17PM 31.5867 -82.2486 332° Northwest 442 509 33,000  Level Jacksonville Center
03:19PM 31.8064 -82.3722 334° Northwest 457 526 33,000  Level Atlanta Center
03:20PM 31.9136 -82.4364 333° Northwest 449 517 33,000  Level Atlanta Center
03:21PM 32.0167 -82.4981 333° Northwest 435 501 33,000  Level Atlanta Center
03:22PM 32.1217 -82.5600 333° Northwest 424 488 33,000 -420 Level Atlanta Center
03:23PM 32.2269 -82.6244 333° Northwest 419 482 32,200 -900 Descending Atlanta Center
03:24PM 32.3297 -82.6844 334° Northwest 413 475 31,200 -1,020 Descending Atlanta Center
03:25PM 32.4286 -82.7469 332° Northwest 413 475 30,200 -1,020 Descending Atlanta Center
03:26PM 32.5275 -82.8119 331° Northwest 413 475 29,200 -1,080 Descending Atlanta Center
03:27PM 32.6342 -82.8450 345° North 406 467 28,100 -1,020 Descending Atlanta Center
03:28PM 32.6917 -82.7406 57° Northeast 295 339 27,200 -960 Descending Atlanta Center
03:29PM 32.6383 -82.6378 122° Southeast 228 262 26,200 -1,020 Descending Atlanta Center
03:30PM 32.5417 -82.6022 163° South 247 284 25,200 -600 Descending Atlanta Center
03:31PM 32.4475 -82.5719 165° South 302 348 25,000 -120 Descending Atlanta Center
03:32PM 32.3492 -82.5489 169° South 335 386 25,000  Level Atlanta Center
03:33PM 32.2747 -82.6142 217° Southwest 306 352 25,000  Level Atlanta Center
03:34PM 32.2928 -82.7242 281° West 241 277 25,000  Level Atlanta Center
03:35PM 32.3872 -82.7722 337° Northwest 235 270 25,000  Level Atlanta Center
03:36PM 32.4878 -82.8075 344° North 305 351 25,000  Level Atlanta Center
03:37PM 32.5903 -82.8406 345° North 360 414 25,000  Level Atlanta Center
03:38PM 32.6753 -82.7728 34° Northeast 320 368 25,000  Level Atlanta Center
03:39PM 32.6386 -82.6625 112° Southeast 224 258 25,000 -60 Level Atlanta Center
03:40PM 32.5400 -82.6244 162° South 244 281 24,900 -540 Descending Atlanta Center
03:41PM 32.4436 -82.5942 165° South 295 339 24,000 -480 Descending Atlanta Center
03:42PM 32.3453 -82.5736 170° South 330 380 24,000  Level Atlanta Center
03:43PM 32.2600 -82.6069 198° South 328 377 24,000  Level Atlanta Center
03:44PM 32.2969 -82.7342 289° West 252 290 24,000  Level Atlanta Center
03:45PM 32.3997 -82.7792 340° North 246 283 24,000  Level Atlanta Center
03:46PM 32.4881 -82.8419 329° Northwest 310 357 24,000 -60 Level Atlanta Center
03:47PM 32.5536 -82.9325 311° West 335 386 23,900 -720 Descending Atlanta Center
03:48PM 32.6169 -83.0106 314° West 369 425 22,600 -1,320 Descending Atlanta Center
03:49PM 32.6969 -83.1206 311° West 369 425 21,300 -1,500 Descending Atlanta Center
03:50PM 32.7708 -83.2161 313° West 376 433 19,700 -1,620 Descending Atlanta Center
03:51PM 32.8403 -83.3044 313° West 376 433 18,100 -1,560 Descending Atlanta Center
03:52PM 32.9056 -83.3931 311° West 371 427 16,600 -1,560 Descending Atlanta Center
03:53PM 32.9728 -83.4817 312° West 366 421 15,000 -1,560 Descending Atlanta Center
03:54PM 33.0397 -83.5731 311° West 361 415 13,500 -1,500 Descending Atlanta Center
03:55PM 33.1069 -83.6644 311° West 361 415 12,100 -780 Descending Atlanta Center
03:56PM 33.1656 -83.7386 313° West 360 414 12,000 -120 Descending Atlanta Center
03:57PM 33.2500 -83.8500 312° West 300 345 11,900 -420 Descending Atlanta TRACON
03:58PM 33.2764 -83.8997 302° West 317 365 11,200 -1,200 Descending Atlanta Center
03:59PM 33.3183 -83.9742 304° West 287 330 9,700 -1,560 Descending Atlanta Center
04:00PM 33.3539 -84.0514 299° West 266 306 8,100 -900 Descending Atlanta Center
04:01PM 33.3831 -84.1208 297° West 240 276 8,000 -780 Descending Atlanta Center
04:02PM 33.4414 -84.1136 North 182 209 6,600 -1,020 Descending Atlanta Center
04:03PM 33.4708 -84.0389 65° Northeast 169 194 6,000 -720 Descending Atlanta Center
04:04PM 33.5061 -83.9742 57° Northeast 202 232 5,200 -1,020 Descending Atlanta Center
04:05PM 33.5542 -83.9664 North 183 211 4,000 -420 Descending Atlanta Center
04:07PM 33.6167 -84.0667 307° West 166 191 4,000  Level Atlanta TRACON
04:08PM 33.6167 -84.1167 270° West 169 194 4,000  Level Atlanta TRACON
04:09PM 33.6167 -84.1833 270° West 168 193 4,000 -120 Level Atlanta TRACON
04:10PM 33.6167 -84.2333 270° West 162 186 3,800 -240 Descending Atlanta TRACON